Terminal Aerodrome Forecast
Issued by NWS

Home | Current Version | Previous Version | Text Only | Print | Product List | Glossary Off
Versions: 1 2 3 4 5 6 7 8 9 10 11 12 13 14 15 16 17 18 19

000
FTUS45 KGGW 221900 AAA
TAFSDY
TAF AMD
KSDY 221916Z 2219/2318 31017KT 6SM -SHSN BKN015 OVC023
     FM230200 32016KT P6SM -SHSN OVC019
     FM230600 32015KT P6SM OVC018
      AMD LTD TO CLD VIS AND WIND=

USA.gov is the U.S. government's official web portal to all federal, state and local government web resources and services.